MUHA/HAV METAR and TAF weather

Enter ICAO airport designator
Station Type Date Time Source
MUHA METAR 2018/12/19 02:55 UTC NOAA

MUHA 190255Z VRB02KT 9000 NSC 19/17 Q1018


Station Type Date Time Source
MUHA Decoded METAR 2018/12/19 02:55 UTC NOAA

Aeropuerto Jose Marti, Rancho-Boyeros, Habana, Cuba (MUHA) 22-59N 082-24W 75M
Dec 18, 2018 - 09:55 PM EST / 2018.12.19 0255 UTC
Wind: Variable at 2 MPH (2 KT):0
Visibility: 5 mile(s):0
Temperature: 66 F (19 C)
Dew Point: 62 F (17 C)
Relative Humidity: 88%
Pressure (altimeter): 30.06 in. Hg (1018 hPa)
ob: MUHA 190255Z VRB02KT 9000 NSC 19/17 Q1018
cycle: 3

Station Type Date Time Source
MUHA TAF 2018/12/18 18:03 UTC NOAA

TAF MUHA 181700Z 1818/1918 06008KT 9000 BKN030
BECMG 1913/1915 16010KT


Example: see airport list